sensor_id;sensor_type;location;lat;lon;timestamp;P1;durP1;ratioP1;P2;durP2;ratioP2
49858;SDS011;35756;52.346;13.622;2023-06-24T00:01:12;13.88;;;8.88;;
49858;SDS011;35756;52.346;13.622;2023-06-24T00:03:38;14.20;;;9.02;;
49858;SDS011;35756;52.346;13.622;2023-06-24T00:06:03;16.58;;;9.02;;
49858;SDS011;35756;52.346;13.622;2023-06-24T00:08:28;16.98;;;9.02;;
49858;SDS011;35756;52.346;13.622;2023-06-24T00:10:59;16.30;;;9.18;;
49858;SDS011;35756;52.346;13.622;2023-06-24T00:13:24;15.55;;;9.55;;
49858;SDS011;35756;52.346;13.622;2023-06-24T00:15:49;16.45;;;9.68;;
49858;SDS011;35756;52.346;13.622;2023-06-24T00:18:14;15.35;;;10.10;;
49858;SDS011;35756;52.346;13.622;2023-06-24T00:20:40;12.18;;;9.25;;
49858;SDS011;35756;52.346;13.622;2023-06-24T00:23:08;14.65;;;9.60;;
49858;SDS011;35756;52.346;13.622;2023-06-24T00:25:33;17.90;;;10.07;;
49858;SDS011;35756;52.346;13.622;2023-06-24T00:27:59;16.63;;;10.05;;
49858;SDS011;35756;52.346;13.622;2023-06-24T00:30:25;16.20;;;10.27;;
49858;SDS011;35756;52.346;13.622;2023-06-24T00:32:51;19.25;;;10.80;;
49858;SDS011;35756;52.346;13.622;2023-06-24T00:35:17;19.52;;;10.48;;
49858;SDS011;35756;52.346;13.622;2023-06-24T00:37:42;18.45;;;11.20;;
49858;SDS011;35756;52.346;13.622;2023-06-24T00:40:10;16.85;;;10.55;;
49858;SDS011;35756;52.346;13.622;2023-06-24T00:42:36;17.10;;;10.25;;
49858;SDS011;35756;52.346;13.622;2023-06-24T00:45:01;17.70;;;10.48;;
49858;SDS011;35756;52.346;13.622;2023-06-24T00:47:29;19.50;;;11.63;;
49858;SDS011;35756;52.346;13.622;2023-06-24T00:49:55;16.23;;;10.57;;
49858;SDS011;35756;52.346;13.622;2023-06-24T00:52:21;15.77;;;10.25;;
49858;SDS011;35756;52.346;13.622;2023-06-24T00:54:47;16.75;;;10.98;;
49858;SDS011;35756;52.346;13.622;2023-06-24T00:57:12;20.30;;;11.73;;
49858;SDS011;35756;52.346;13.622;2023-06-24T00:59:38;20.42;;;10.68;;
49858;SDS011;35756;52.346;13.622;2023-06-24T01:02:03;21.63;;;12.88;;
49858;SDS011;35756;52.346;13.622;2023-06-24T01:04:29;21.27;;;11.38;;
49858;SDS011;35756;52.346;13.622;2023-06-24T01:06:56;23.67;;;12.18;;
49858;SDS011;35756;52.346;13.622;2023-06-24T01:09:21;19.55;;;12.23;;
49858;SDS011;35756;52.346;13.622;2023-06-24T01:11:48;18.25;;;11.27;;
49858;SDS011;35756;52.346;13.622;2023-06-24T01:14:13;18.75;;;11.55;;
49858;SDS011;35756;52.346;13.622;2023-06-24T01:19:17;23.98;;;12.75;;
49858;SDS011;35756;52.346;13.622;2023-06-24T01:22:03;25.90;;;13.57;;
49858;SDS011;35756;52.346;13.622;2023-06-24T01:24:48;26.55;;;12.75;;
49858;SDS011;35756;52.346;13.622;2023-06-24T01:27:42;25.70;;;13.82;;
49858;SDS011;35756;52.346;13.622;2023-06-24T01:33:07;18.05;;;12.40;;
49858;SDS011;35756;52.346;13.622;2023-06-24T01:35:34;21.23;;;13.20;;
49858;SDS011;35756;52.346;13.622;2023-06-24T01:38:01;24.13;;;13.65;;
49858;SDS011;35756;52.346;13.622;2023-06-24T01:40:34;20.75;;;13.10;;
49858;SDS011;35756;52.346;13.622;2023-06-24T01:43:05;22.65;;;13.43;;
49858;SDS011;35756;52.346;13.622;2023-06-24T01:45:32;24.77;;;14.70;;
49858;SDS011;35756;52.346;13.622;2023-06-24T01:48:02;25.30;;;15.07;;
49858;SDS011;35756;52.346;13.622;2023-06-24T01:51:00;23.52;;;13.88;;
49858;SDS011;35756;52.346;13.622;2023-06-24T01:53:26;25.85;;;14.57;;
49858;SDS011;35756;52.346;13.622;2023-06-24T01:55:53;25.83;;;15.70;;
49858;SDS011;35756;52.346;13.622;2023-06-24T01:58:19;28.30;;;14.80;;
49858;SDS011;35756;52.346;13.622;2023-06-24T02:00:46;28.13;;;15.20;;
49858;SDS011;35756;52.346;13.622;2023-06-24T02:03:13;25.60;;;15.40;;
49858;SDS011;35756;52.346;13.622;2023-06-24T02:05:39;29.23;;;15.55;;
49858;SDS011;35756;52.346;13.622;2023-06-24T02:08:06;22.55;;;15.13;;
49858;SDS011;35756;52.346;13.622;2023-06-24T02:10:33;25.13;;;14.65;;
49858;SDS011;35756;52.346;13.622;2023-06-24T02:13:00;34.67;;;15.05;;
49858;SDS011;35756;52.346;13.622;2023-06-24T02:15:25;23.60;;;15.23;;
49858;SDS011;35756;52.346;13.622;2023-06-24T02:17:51;25.02;;;15.25;;
49858;SDS011;35756;52.346;13.622;2023-06-24T02:20:17;27.23;;;16.80;;
49858;SDS011;35756;52.346;13.622;2023-06-24T02:22:44;30.48;;;17.33;;
49858;SDS011;35756;52.346;13.622;2023-06-24T02:25:10;26.75;;;16.00;;
49858;SDS011;35756;52.346;13.622;2023-06-24T02:27:35;29.08;;;16.70;;
49858;SDS011;35756;52.346;13.622;2023-06-24T02:30:01;32.78;;;17.60;;
49858;SDS011;35756;52.346;13.622;2023-06-24T02:32:27;25.88;;;15.45;;
49858;SDS011;35756;52.346;13.622;2023-06-24T02:34:53;26.13;;;16.63;;
49858;SDS011;35756;52.346;13.622;2023-06-24T02:37:18;29.48;;;16.95;;
49858;SDS011;35756;52.346;13.622;2023-06-24T02:39:43;27.42;;;16.50;;
49858;SDS011;35756;52.346;13.622;2023-06-24T02:42:12;26.83;;;16.55;;
49858;SDS011;35756;52.346;13.622;2023-06-24T02:44:38;26.58;;;17.25;;
49858;SDS011;35756;52.346;13.622;2023-06-24T02:47:05;31.55;;;17.80;;
49858;SDS011;35756;52.346;13.622;2023-06-24T02:49:31;34.58;;;17.80;;
49858;SDS011;35756;52.346;13.622;2023-06-24T02:51:57;28.60;;;17.58;;
49858;SDS011;35756;52.346;13.622;2023-06-24T02:54:22;25.60;;;16.92;;
49858;SDS011;35756;52.346;13.622;2023-06-24T02:56:48;25.38;;;16.20;;
49858;SDS011;35756;52.346;13.622;2023-06-24T02:59:13;28.98;;;16.90;;
49858;SDS011;35756;52.346;13.622;2023-06-24T03:01:38;29.20;;;16.42;;
49858;SDS011;35756;52.346;13.622;2023-06-24T03:04:05;32.42;;;17.17;;
49858;SDS011;35756;52.346;13.622;2023-06-24T03:06:31;25.83;;;16.10;;
49858;SDS011;35756;52.346;13.622;2023-06-24T03:08:57;29.25;;;16.65;;
49858;SDS011;35756;52.346;13.622;2023-06-24T03:11:22;29.85;;;17.00;;
49858;SDS011;35756;52.346;13.622;2023-06-24T03:13:48;31.25;;;15.93;;
49858;SDS011;35756;52.346;13.622;2023-06-24T03:16:13;25.80;;;14.65;;
49858;SDS011;35756;52.346;13.622;2023-06-24T03:18:41;24.98;;;15.70;;
49858;SDS011;35756;52.346;13.622;2023-06-24T03:21:07;21.27;;;14.80;;
49858;SDS011;35756;52.346;13.622;2023-06-24T03:23:33;19.75;;;14.82;;
49858;SDS011;35756;52.346;13.622;2023-06-24T03:25:58;20.73;;;14.18;;
49858;SDS011;35756;52.346;13.622;2023-06-24T03:28:23;21.20;;;14.32;;
49858;SDS011;35756;52.346;13.622;2023-06-24T03:30:49;22.50;;;13.88;;
49858;SDS011;35756;52.346;13.622;2023-06-24T03:33:14;25.60;;;13.90;;
49858;SDS011;35756;52.346;13.622;2023-06-24T03:35:41;19.95;;;13.30;;
49858;SDS011;35756;52.346;13.622;2023-06-24T03:38:07;21.08;;;13.45;;
49858;SDS011;35756;52.346;13.622;2023-06-24T03:40:32;22.77;;;13.30;;
49858;SDS011;35756;52.346;13.622;2023-06-24T03:42:57;20.88;;;14.27;;
49858;SDS011;35756;52.346;13.622;2023-06-24T03:45:23;20.92;;;13.23;;
49858;SDS011;35756;52.346;13.622;2023-06-24T03:47:48;21.45;;;13.55;;
49858;SDS011;35756;52.346;13.622;2023-06-24T03:50:13;22.98;;;13.60;;
49858;SDS011;35756;52.346;13.622;2023-06-24T03:52:39;19.88;;;13.38;;
49858;SDS011;35756;52.346;13.622;2023-06-24T03:55:04;21.52;;;12.60;;
49858;SDS011;35756;52.346;13.622;2023-06-24T03:57:30;20.88;;;12.13;;
49858;SDS011;35756;52.346;13.622;2023-06-24T03:59:55;24.38;;;14.05;;
49858;SDS011;35756;52.346;13.622;2023-06-24T04:02:21;23.90;;;13.20;;
49858;SDS011;35756;52.346;13.622;2023-06-24T04:04:46;18.00;;;12.68;;
49858;SDS011;35756;52.346;13.622;2023-06-24T04:07:15;20.77;;;12.32;;
49858;SDS011;35756;52.346;13.622;2023-06-24T04:09:40;17.50;;;11.93;;
49858;SDS011;35756;52.346;13.622;2023-06-24T04:12:05;16.55;;;11.90;;
49858;SDS011;35756;52.346;13.622;2023-06-24T04:14:31;17.58;;;11.00;;
49858;SDS011;35756;52.346;13.622;2023-06-24T04:16:56;15.50;;;11.27;;
49858;SDS011;35756;52.346;13.622;2023-06-24T04:19:21;15.02;;;10.57;;
49858;SDS011;35756;52.346;13.622;2023-06-24T04:21:47;15.85;;;10.32;;
49858;SDS011;35756;52.346;13.622;2023-06-24T04:24:12;18.63;;;10.75;;
49858;SDS011;35756;52.346;13.622;2023-06-24T04:26:37;14.82;;;9.75;;
49858;SDS011;35756;52.346;13.622;2023-06-24T04:29:02;16.48;;;10.00;;
49858;SDS011;35756;52.346;13.622;2023-06-24T04:31:28;17.85;;;9.93;;
49858;SDS011;35756;52.346;13.622;2023-06-24T04:33:53;16.05;;;9.70;;
49858;SDS011;35756;52.346;13.622;2023-06-24T04:36:18;16.42;;;10.07;;
49858;SDS011;35756;52.346;13.622;2023-06-24T04:38:44;14.95;;;10.40;;
49858;SDS011;35756;52.346;13.622;2023-06-24T04:41:09;14.60;;;9.77;;
49858;SDS011;35756;52.346;13.622;2023-06-24T04:43:34;14.18;;;9.55;;
49858;SDS011;35756;52.346;13.622;2023-06-24T04:46:00;14.70;;;10.10;;
49858;SDS011;35756;52.346;13.622;2023-06-24T04:48:26;12.68;;;8.60;;
49858;SDS011;35756;52.346;13.622;2023-06-24T04:50:51;17.10;;;9.95;;
49858;SDS011;35756;52.346;13.622;2023-06-24T04:53:18;13.02;;;8.73;;
49858;SDS011;35756;52.346;13.622;2023-06-24T04:55:43;13.63;;;9.48;;
49858;SDS011;35756;52.346;13.622;2023-06-24T04:58:09;13.90;;;9.50;;
49858;SDS011;35756;52.346;13.622;2023-06-24T05:00:34;14.48;;;9.82;;
49858;SDS011;35756;52.346;13.622;2023-06-24T05:02:59;15.38;;;9.75;;
49858;SDS011;35756;52.346;13.622;2023-06-24T05:05:25;15.07;;;9.20;;
49858;SDS011;35756;52.346;13.622;2023-06-24T05:07:50;13.60;;;9.18;;
49858;SDS011;35756;52.346;13.622;2023-06-24T05:10:15;16.08;;;9.85;;
49858;SDS011;35756;52.346;13.622;2023-06-24T05:12:40;14.20;;;9.43;;
49858;SDS011;35756;52.346;13.622;2023-06-24T05:15:06;14.88;;;9.55;;
49858;SDS011;35756;52.346;13.622;2023-06-24T05:17:32;12.00;;;9.40;;
49858;SDS011;35756;52.346;13.622;2023-06-24T05:19:57;14.00;;;8.52;;
49858;SDS011;35756;52.346;13.622;2023-06-24T05:22:23;13.75;;;8.93;;
49858;SDS011;35756;52.346;13.622;2023-06-24T05:24:48;12.35;;;8.52;;
49858;SDS011;35756;52.346;13.622;2023-06-24T05:27:14;11.73;;;8.15;;
49858;SDS011;35756;52.346;13.622;2023-06-24T05:29:39;13.77;;;8.48;;
49858;SDS011;35756;52.346;13.622;2023-06-24T05:32:04;10.48;;;7.90;;
49858;SDS011;35756;52.346;13.622;2023-06-24T05:34:30;14.00;;;8.00;;
49858;SDS011;35756;52.346;13.622;2023-06-24T05:36:56;18.90;;;8.50;;
49858;SDS011;35756;52.346;13.622;2023-06-24T05:39:21;12.80;;;7.53;;
49858;SDS011;35756;52.346;13.622;2023-06-24T05:41:46;14.50;;;7.65;;
49858;SDS011;35756;52.346;13.622;2023-06-24T05:44:13;13.38;;;8.07;;
49858;SDS011;35756;52.346;13.622;2023-06-24T05:46:38;11.13;;;7.22;;
49858;SDS011;35756;52.346;13.622;2023-06-24T05:49:04;10.80;;;7.38;;
49858;SDS011;35756;52.346;13.622;2023-06-24T05:51:29;10.55;;;6.95;;
49858;SDS011;35756;52.346;13.622;2023-06-24T05:53:54;11.35;;;7.15;;
49858;SDS011;35756;52.346;13.622;2023-06-24T05:56:20;9.82;;;7.47;;
49858;SDS011;35756;52.346;13.622;2023-06-24T05:58:47;14.10;;;7.80;;
49858;SDS011;35756;52.346;13.622;2023-06-24T06:01:12;11.73;;;7.28;;
49858;SDS011;35756;52.346;13.622;2023-06-24T06:03:38;11.80;;;6.88;;
49858;SDS011;35756;52.346;13.622;2023-06-24T06:06:03;10.88;;;6.22;;
49858;SDS011;35756;52.346;13.622;2023-06-24T06:08:29;13.32;;;7.72;;
49858;SDS011;35756;52.346;13.622;2023-06-24T06:10:54;9.57;;;6.35;;
49858;SDS011;35756;52.346;13.622;2023-06-24T06:13:19;11.07;;;6.30;;
49858;SDS011;35756;52.346;13.622;2023-06-24T06:15:45;12.75;;;7.13;;
49858;SDS011;35756;52.346;13.622;2023-06-24T06:18:10;11.13;;;7.45;;
49858;SDS011;35756;52.346;13.622;2023-06-24T06:20:36;9.43;;;6.78;;
49858;SDS011;35756;52.346;13.622;2023-06-24T06:23:02;10.80;;;6.70;;
49858;SDS011;35756;52.346;13.622;2023-06-24T06:25:27;8.70;;;6.57;;
49858;SDS011;35756;52.346;13.622;2023-06-24T06:27:52;11.90;;;6.70;;
49858;SDS011;35756;52.346;13.622;2023-06-24T06:30:17;10.05;;;7.35;;
49858;SDS011;35756;52.346;13.622;2023-06-24T06:32:43;10.60;;;6.68;;
49858;SDS011;35756;52.346;13.622;2023-06-24T06:35:08;9.63;;;6.65;;
49858;SDS011;35756;52.346;13.622;2023-06-24T06:37:33;9.15;;;6.75;;
49858;SDS011;35756;52.346;13.622;2023-06-24T06:39:59;8.85;;;6.75;;
49858;SDS011;35756;52.346;13.622;2023-06-24T06:42:24;10.35;;;6.78;;
49858;SDS011;35756;52.346;13.622;2023-06-24T06:44:50;8.45;;;6.30;;
49858;SDS011;35756;52.346;13.622;2023-06-24T06:47:15;8.38;;;5.75;;
49858;SDS011;35756;52.346;13.622;2023-06-24T06:49:40;8.10;;;5.50;;
49858;SDS011;35756;52.346;13.622;2023-06-24T06:52:06;6.82;;;5.47;;
49858;SDS011;35756;52.346;13.622;2023-06-24T06:54:31;10.10;;;5.78;;
49858;SDS011;35756;52.346;13.622;2023-06-24T06:57:03;8.43;;;5.55;;
49858;SDS011;35756;52.346;13.622;2023-06-24T06:59:29;8.70;;;5.78;;
49858;SDS011;35756;52.346;13.622;2023-06-24T07:01:55;6.45;;;5.40;;
49858;SDS011;35756;52.346;13.622;2023-06-24T07:04:20;8.75;;;5.10;;
49858;SDS011;35756;52.346;13.622;2023-06-24T07:06:45;7.88;;;5.60;;
49858;SDS011;35756;52.346;13.622;2023-06-24T07:09:11;9.75;;;5.78;;
49858;SDS011;35756;52.346;13.622;2023-06-24T07:11:36;9.88;;;5.35;;
49858;SDS011;35756;52.346;13.622;2023-06-24T07:14:01;8.35;;;5.80;;
49858;SDS011;35756;52.346;13.622;2023-06-24T07:16:26;7.05;;;5.00;;
49858;SDS011;35756;52.346;13.622;2023-06-24T07:18:52;6.25;;;4.78;;
49858;SDS011;35756;52.346;13.622;2023-06-24T07:21:17;8.57;;;5.07;;
49858;SDS011;35756;52.346;13.622;2023-06-24T07:23:42;8.25;;;4.72;;
49858;SDS011;35756;52.346;13.622;2023-06-24T07:26:08;9.05;;;5.10;;
49858;SDS011;35756;52.346;13.622;2023-06-24T07:28:33;8.63;;;4.95;;
49858;SDS011;35756;52.346;13.622;2023-06-24T07:30:58;7.53;;;4.88;;
49858;SDS011;35756;52.346;13.622;2023-06-24T07:33:24;10.23;;;5.25;;
49858;SDS011;35756;52.346;13.622;2023-06-24T07:35:49;6.90;;;5.47;;
49858;SDS011;35756;52.346;13.622;2023-06-24T07:38:14;6.47;;;5.25;;
49858;SDS011;35756;52.346;13.622;2023-06-24T07:40:40;8.55;;;6.05;;
49858;SDS011;35756;52.346;13.622;2023-06-24T07:43:05;8.85;;;5.55;;
49858;SDS011;35756;52.346;13.622;2023-06-24T07:45:30;8.50;;;5.72;;
49858;SDS011;35756;52.346;13.622;2023-06-24T07:47:55;7.75;;;5.43;;
49858;SDS011;35756;52.346;13.622;2023-06-24T07:50:21;7.18;;;5.32;;
49858;SDS011;35756;52.346;13.622;2023-06-24T07:52:46;7.15;;;5.30;;
49858;SDS011;35756;52.346;13.622;2023-06-24T07:55:11;13.07;;;6.03;;
49858;SDS011;35756;52.346;13.622;2023-06-24T07:57:37;11.00;;;6.28;;
49858;SDS011;35756;52.346;13.622;2023-06-24T08:00:02;8.05;;;5.72;;
49858;SDS011;35756;52.346;13.622;2023-06-24T08:02:28;10.07;;;5.82;;
49858;SDS011;35756;52.346;13.622;2023-06-24T08:04:53;9.23;;;5.57;;
49858;SDS011;35756;52.346;13.622;2023-06-24T08:07:19;10.32;;;5.60;;
49858;SDS011;35756;52.346;13.622;2023-06-24T08:09:44;12.13;;;4.95;;
49858;SDS011;35756;52.346;13.622;2023-06-24T08:12:09;6.72;;;4.90;;
49858;SDS011;35756;52.346;13.622;2023-06-24T08:14:35;9.40;;;4.80;;
49858;SDS011;35756;52.346;13.622;2023-06-24T08:17:00;7.82;;;4.65;;
49858;SDS011;35756;52.346;13.622;2023-06-24T08:19:26;7.05;;;4.47;;
49858;SDS011;35756;52.346;13.622;2023-06-24T08:21:51;8.52;;;5.10;;
49858;SDS011;35756;52.346;13.622;2023-06-24T08:24:16;6.68;;;4.40;;
49858;SDS011;35756;52.346;13.622;2023-06-24T08:26:41;7.32;;;4.57;;
49858;SDS011;35756;52.346;13.622;2023-06-24T08:29:07;7.40;;;5.05;;
49858;SDS011;35756;52.346;13.622;2023-06-24T08:31:32;7.07;;;4.28;;
49858;SDS011;35756;52.346;13.622;2023-06-24T08:34:01;4.65;;;3.58;;
49858;SDS011;35756;52.346;13.622;2023-06-24T08:36:27;7.25;;;3.85;;
49858;SDS011;35756;52.346;13.622;2023-06-24T08:38:54;6.13;;;4.22;;
49858;SDS011;35756;52.346;13.622;2023-06-24T08:41:19;7.47;;;4.00;;
49858;SDS011;35756;52.346;13.622;2023-06-24T08:43:44;5.18;;;3.90;;
49858;SDS011;35756;52.346;13.622;2023-06-24T08:46:09;7.45;;;4.75;;
49858;SDS011;35756;52.346;13.622;2023-06-24T08:48:36;5.07;;;4.03;;
49858;SDS011;35756;52.346;13.622;2023-06-24T08:51:05;7.40;;;4.13;;
49858;SDS011;35756;52.346;13.622;2023-06-24T08:53:32;7.72;;;3.72;;
49858;SDS011;35756;52.346;13.622;2023-06-24T08:55:58;7.75;;;4.28;;
49858;SDS011;35756;52.346;13.622;2023-06-24T08:58:23;8.30;;;4.05;;
49858;SDS011;35756;52.346;13.622;2023-06-24T09:00:48;5.78;;;4.30;;
49858;SDS011;35756;52.346;13.622;2023-06-24T09:03:13;5.65;;;4.25;;
49858;SDS011;35756;52.346;13.622;2023-06-24T09:05:39;5.30;;;3.75;;
49858;SDS011;35756;52.346;13.622;2023-06-24T09:08:04;8.25;;;4.20;;
49858;SDS011;35756;52.346;13.622;2023-06-24T09:13:05;5.93;;;3.50;;
49858;SDS011;35756;52.346;13.622;2023-06-24T09:18:00;6.90;;;3.88;;
49858;SDS011;35756;52.346;13.622;2023-06-24T09:20:27;6.47;;;4.13;;
49858;SDS011;35756;52.346;13.622;2023-06-24T09:22:57;10.68;;;4.25;;
49858;SDS011;35756;52.346;13.622;2023-06-24T09:25:23;5.55;;;3.70;;
49858;SDS011;35756;52.346;13.622;2023-06-24T09:27:48;5.68;;;4.43;;
49858;SDS011;35756;52.346;13.622;2023-06-24T09:30:22;6.97;;;4.20;;
49858;SDS011;35756;52.346;13.622;2023-06-24T09:32:47;7.30;;;4.63;;
49858;SDS011;35756;52.346;13.622;2023-06-24T09:35:17;7.28;;;5.07;;
49858;SDS011;35756;52.346;13.622;2023-06-24T09:37:48;8.32;;;4.13;;
49858;SDS011;35756;52.346;13.622;2023-06-24T09:40:14;5.85;;;3.88;;
49858;SDS011;35756;52.346;13.622;2023-06-24T09:42:47;5.97;;;3.88;;
49858;SDS011;35756;52.346;13.622;2023-06-24T09:45:13;15.48;;;5.45;;
49858;SDS011;35756;52.346;13.622;2023-06-24T09:47:38;6.45;;;3.83;;
49858;SDS011;35756;52.346;13.622;2023-06-24T09:50:04;6.20;;;4.32;;
49858;SDS011;35756;52.346;13.622;2023-06-24T09:52:29;5.22;;;3.58;;
49858;SDS011;35756;52.346;13.622;2023-06-24T09:54:56;7.18;;;4.28;;
49858;SDS011;35756;52.346;13.622;2023-06-24T09:57:25;7.07;;;4.00;;
49858;SDS011;35756;52.346;13.622;2023-06-24T09:59:52;8.23;;;3.78;;
49858;SDS011;35756;52.346;13.622;2023-06-24T10:02:17;5.40;;;4.43;;
49858;SDS011;35756;52.346;13.622;2023-06-24T10:04:43;4.88;;;3.80;;
49858;SDS011;35756;52.346;13.622;2023-06-24T10:07:08;5.18;;;4.10;;
49858;SDS011;35756;52.346;13.622;2023-06-24T10:09:34;8.32;;;4.10;;
49858;SDS011;35756;52.346;13.622;2023-06-24T10:12:00;7.18;;;3.90;;
49858;SDS011;35756;52.346;13.622;2023-06-24T10:14:26;7.50;;;4.45;;
49858;SDS011;35756;52.346;13.622;2023-06-24T10:16:51;8.48;;;3.65;;
49858;SDS011;35756;52.346;13.622;2023-06-24T10:19:19;8.35;;;3.95;;
49858;SDS011;35756;52.346;13.622;2023-06-24T10:21:52;7.03;;;4.05;;
49858;SDS011;35756;52.346;13.622;2023-06-24T10:24:34;5.25;;;3.70;;
49858;SDS011;35756;52.346;13.622;2023-06-24T10:27:02;4.45;;;3.42;;
49858;SDS011;35756;52.346;13.622;2023-06-24T10:29:32;5.20;;;3.50;;
49858;SDS011;35756;52.346;13.622;2023-06-24T10:32:05;5.15;;;3.50;;
49858;SDS011;35756;52.346;13.622;2023-06-24T10:34:32;6.93;;;3.80;;
49858;SDS011;35756;52.346;13.622;2023-06-24T10:37:12;7.70;;;3.35;;
49858;SDS011;35756;52.346;13.622;2023-06-24T10:39:57;5.10;;;3.80;;
49858;SDS011;35756;52.346;13.622;2023-06-24T10:47:34;6.75;;;3.72;;
49858;SDS011;35756;52.346;13.622;2023-06-24T10:50:24;6.70;;;3.47;;
49858;SDS011;35756;52.346;13.622;2023-06-24T10:52:50;7.47;;;4.00;;
49858;SDS011;35756;52.346;13.622;2023-06-24T10:55:20;4.78;;;3.60;;
49858;SDS011;35756;52.346;13.622;2023-06-24T10:57:47;5.18;;;3.28;;
49858;SDS011;35756;52.346;13.622;2023-06-24T11:00:13;5.15;;;3.38;;
49858;SDS011;35756;52.346;13.622;2023-06-24T11:02:38;5.45;;;3.20;;
49858;SDS011;35756;52.346;13.622;2023-06-24T11:05:04;5.20;;;3.35;;
49858;SDS011;35756;52.346;13.622;2023-06-24T11:07:31;4.47;;;3.10;;
49858;SDS011;35756;52.346;13.622;2023-06-24T11:10:01;5.30;;;3.53;;
49858;SDS011;35756;52.346;13.622;2023-06-24T11:12:32;6.80;;;3.53;;
49858;SDS011;35756;52.346;13.622;2023-06-24T11:15:00;5.47;;;3.67;;
49858;SDS011;35756;52.346;13.622;2023-06-24T11:17:35;5.82;;;3.17;;
49858;SDS011;35756;52.346;13.622;2023-06-24T11:20:02;7.43;;;3.42;;
49858;SDS011;35756;52.346;13.622;2023-06-24T11:22:31;5.95;;;3.28;;
49858;SDS011;35756;52.346;13.622;2023-06-24T11:24:57;4.82;;;3.25;;
49858;SDS011;35756;52.346;13.622;2023-06-24T11:27:26;4.32;;;3.53;;
49858;SDS011;35756;52.346;13.622;2023-06-24T11:29:52;4.47;;;3.30;;
49858;SDS011;35756;52.346;13.622;2023-06-24T11:32:18;4.88;;;2.92;;
49858;SDS011;35756;52.346;13.622;2023-06-24T11:34:43;5.28;;;3.58;;
49858;SDS011;35756;52.346;13.622;2023-06-24T11:37:10;7.32;;;3.40;;
49858;SDS011;35756;52.346;13.622;2023-06-24T11:39:36;5.28;;;3.03;;
49858;SDS011;35756;52.346;13.622;2023-06-24T11:42:01;4.50;;;3.30;;
49858;SDS011;35756;52.346;13.622;2023-06-24T11:44:26;8.57;;;3.40;;
49858;SDS011;35756;52.346;13.622;2023-06-24T11:46:52;5.68;;;3.67;;
49858;SDS011;35756;52.346;13.622;2023-06-24T11:49:17;6.78;;;3.40;;
49858;SDS011;35756;52.346;13.622;2023-06-24T11:51:47;5.53;;;3.42;;
49858;SDS011;35756;52.346;13.622;2023-06-24T11:54:14;7.40;;;3.35;;
49858;SDS011;35756;52.346;13.622;2023-06-24T11:56:40;7.22;;;3.83;;
49858;SDS011;35756;52.346;13.622;2023-06-24T11:59:07;4.93;;;3.50;;
49858;SDS011;35756;52.346;13.622;2023-06-24T12:01:42;4.53;;;3.30;;
49858;SDS011;35756;52.346;13.622;2023-06-24T12:04:11;4.10;;;3.50;;
49858;SDS011;35756;52.346;13.622;2023-06-24T12:06:40;5.68;;;3.33;;
49858;SDS011;35756;52.346;13.622;2023-06-24T12:09:07;6.00;;;3.60;;
49858;SDS011;35756;52.346;13.622;2023-06-24T12:11:32;5.43;;;3.40;;
49858;SDS011;35756;52.346;13.622;2023-06-24T12:13:58;8.15;;;3.67;;
49858;SDS011;35756;52.346;13.622;2023-06-24T12:16:23;6.30;;;3.35;;
49858;SDS011;35756;52.346;13.622;2023-06-24T12:18:49;5.70;;;3.85;;
49858;SDS011;35756;52.346;13.622;2023-06-24T12:21:15;5.30;;;3.60;;
49858;SDS011;35756;52.346;13.622;2023-06-24T12:23:40;5.90;;;3.65;;
49858;SDS011;35756;52.346;13.622;2023-06-24T12:26:05;7.03;;;3.80;;
49858;SDS011;35756;52.346;13.622;2023-06-24T12:28:30;5.68;;;3.35;;
49858;SDS011;35756;52.346;13.622;2023-06-24T12:30:56;5.13;;;3.60;;
49858;SDS011;35756;52.346;13.622;2023-06-24T12:33:21;5.53;;;3.60;;
49858;SDS011;35756;52.346;13.622;2023-06-24T12:35:47;6.70;;;3.53;;
49858;SDS011;35756;52.346;13.622;2023-06-24T12:38:13;5.60;;;3.20;;
49858;SDS011;35756;52.346;13.622;2023-06-24T12:40:38;5.68;;;3.42;;
49858;SDS011;35756;52.346;13.622;2023-06-24T12:43:04;5.10;;;3.60;;
49858;SDS011;35756;52.346;13.622;2023-06-24T12:45:29;6.10;;;3.60;;
49858;SDS011;35756;52.346;13.622;2023-06-24T12:47:54;6.47;;;3.53;;
49858;SDS011;35756;52.346;13.622;2023-06-24T12:50:20;4.53;;;3.30;;
49858;SDS011;35756;52.346;13.622;2023-06-24T12:52:45;5.07;;;3.60;;
49858;SDS011;35756;52.346;13.622;2023-06-24T12:55:10;6.50;;;3.65;;
49858;SDS011;35756;52.346;13.622;2023-06-24T12:57:36;4.25;;;3.30;;
49858;SDS011;35756;52.346;13.622;2023-06-24T13:00:02;6.63;;;3.92;;
49858;SDS011;35756;52.346;13.622;2023-06-24T13:02:30;6.75;;;3.65;;
49858;SDS011;35756;52.346;13.622;2023-06-24T13:04:55;6.93;;;3.22;;
49858;SDS011;35756;52.346;13.622;2023-06-24T13:07:20;4.13;;;3.40;;
49858;SDS011;35756;52.346;13.622;2023-06-24T13:09:46;7.57;;;3.50;;
49858;SDS011;35756;52.346;13.622;2023-06-24T13:12:11;7.10;;;3.55;;
49858;SDS011;35756;52.346;13.622;2023-06-24T13:14:36;4.90;;;3.45;;
49858;SDS011;35756;52.346;13.622;2023-06-24T13:17:02;6.22;;;3.50;;
49858;SDS011;35756;52.346;13.622;2023-06-24T13:19:27;4.15;;;3.30;;
49858;SDS011;35756;52.346;13.622;2023-06-24T13:21:52;6.13;;;4.28;;
49858;SDS011;35756;52.346;13.622;2023-06-24T13:24:17;5.95;;;3.50;;
49858;SDS011;35756;52.346;13.622;2023-06-24T13:26:43;7.65;;;3.60;;
49858;SDS011;35756;52.346;13.622;2023-06-24T13:29:08;5.53;;;3.78;;
49858;SDS011;35756;52.346;13.622;2023-06-24T13:31:33;4.95;;;3.60;;
49858;SDS011;35756;52.346;13.622;2023-06-24T13:33:59;4.93;;;3.22;;
49858;SDS011;35756;52.346;13.622;2023-06-24T13:36:28;5.13;;;3.50;;
49858;SDS011;35756;52.346;13.622;2023-06-24T13:38:55;8.17;;;3.80;;
49858;SDS011;35756;52.346;13.622;2023-06-24T13:41:21;7.38;;;3.65;;
49858;SDS011;35756;52.346;13.622;2023-06-24T13:43:46;5.28;;;3.65;;
49858;SDS011;35756;52.346;13.622;2023-06-24T13:46:12;9.20;;;3.50;;
49858;SDS011;35756;52.346;13.622;2023-06-24T13:48:37;9.00;;;3.72;;
49858;SDS011;35756;52.346;13.622;2023-06-24T13:51:02;7.72;;;4.20;;
49858;SDS011;35756;52.346;13.622;2023-06-24T13:53:28;4.72;;;3.45;;
49858;SDS011;35756;52.346;13.622;2023-06-24T13:55:53;5.05;;;3.88;;
49858;SDS011;35756;52.346;13.622;2023-06-24T13:58:18;8.60;;;4.20;;
49858;SDS011;35756;52.346;13.622;2023-06-24T14:00:43;7.50;;;4.07;;
49858;SDS011;35756;52.346;13.622;2023-06-24T14:03:09;10.50;;;3.58;;
49858;SDS011;35756;52.346;13.622;2023-06-24T14:05:34;5.35;;;3.90;;
49858;SDS011;35756;52.346;13.622;2023-06-24T14:07:59;7.68;;;3.75;;
49858;SDS011;35756;52.346;13.622;2023-06-24T14:10:24;6.18;;;3.75;;
49858;SDS011;35756;52.346;13.622;2023-06-24T14:12:50;6.32;;;4.15;;
49858;SDS011;35756;52.346;13.622;2023-06-24T14:15:15;5.90;;;4.03;;
49858;SDS011;35756;52.346;13.622;2023-06-24T14:17:40;7.43;;;4.90;;
49858;SDS011;35756;52.346;13.622;2023-06-24T14:20:06;7.57;;;4.28;;
49858;SDS011;35756;52.346;13.622;2023-06-24T14:22:31;8.00;;;4.18;;
49858;SDS011;35756;52.346;13.622;2023-06-24T14:24:57;6.60;;;3.90;;
49858;SDS011;35756;52.346;13.622;2023-06-24T14:27:22;7.75;;;4.25;;
49858;SDS011;35756;52.346;13.622;2023-06-24T14:29:47;6.38;;;3.75;;
49858;SDS011;35756;52.346;13.622;2023-06-24T14:32:13;6.03;;;4.00;;
49858;SDS011;35756;52.346;13.622;2023-06-24T14:34:38;7.38;;;4.20;;